| Date | Time | Temp. (oF) | Dew Point (oF) | Rel. Hum. (%) | Press. (in.) | Wind Dir. | Wind Speed (mph) | Hourly Rainfall (in.) |
|
|---|---|---|---|---|---|---|---|---|---|
| 1 | 04/13 | 00:00 | 54 | 35 | 49 | 29.67 | NW | 9 | 0.00 |
| 2 | 04/12 | 23:00 | 57 | 35 | 45 | 29.67 | NNW | 10 | 0.00 |
| 3 | 04/12 | 22:00 | 60 | 37 | 44 | 29.63 | NW | 13 | 0.00 |
| 4 | 04/12 | 21:00 | 63 | 40 | 44 | 29.58 | N | 7 | 0.00 |
| 5 | 04/12 | 20:00 | 67 | 41 | 40 | 29.51 | N | 7 | 0.00 |
| 6 | 04/12 | 19:00 | 73 | 42 | 34 | 29.46 | NNW | 15 | 0.00 |
| 7 | 04/12 | 18:00 | 76 | 41 | 30 | 29.44 | WNW | 8 | 0.00 |
| 8 | 04/12 | 17:00 | 75 | 50 | 42 | 29.43 | SW | 3 | 0.00 |
| 9 | 04/12 | 16:00 | 72 | 51 | 49 | 29.46 | SSW | 5 | 0.00 |
| 10 | 04/12 | 15:00 | 65 | 54 | 68 | 29.51 | S | 5 | 0.01 |
| 11 | 04/12 | 14:00 | 66 | 53 | 65 | 29.55 | SSW | 4 | 0.01 |
| 12 | 04/12 | 13:00 | 71 | 53 | 55 | 29.55 | NW | 4 | 0.00 |
| 13 | 04/12 | 12:00 | 68 | 54 | 63 | 29.58 | WNW | 9 | 0.00 |
| 14 | 04/12 | 11:00 | 66 | 58 | 76 | 29.58 | NNW | 13 | 0.00 |
| 15 | 04/12 | 10:00 | 67 | 64 | 91 | 29.58 | NNW | 8 | 0.00 |
| 16 | 04/12 | 09:00 | 66 | 64 | 94 | 29.57 | SSW | 0 | 0.00 |
| 17 | 04/12 | 08:00 | 60 | 59 | 100 | 29.58 | E | 0 | 0.00 |
| 18 | 04/12 | 07:00 | 58 | 58 | 100 | 29.58 | N | 3 | 0.00 |
| 19 | 04/12 | 06:00 | 58 | 58 | 100 | 29.58 | WNW | 0 | 0.00 |
| 20 | 04/12 | 05:00 | 59 | 59 | 100 | 29.57 | NW | 2 | 0.00 |
| 21 | 04/12 | 04:00 | 59 | 59 | 100 | 29.56 | S | 4 | 0.00 |
| 22 | 04/12 | 03:00 | 60 | 59 | 100 | 29.57 | S | 4 | 0.00 |
| 23 | 04/12 | 02:00 | 61 | 60 | 100 | 29.60 | SSE | 4 | 0.01 |
| 24 | 04/12 | 01:00 | 62 | 62 | 100 | 29.62 | SSW | 5 | 0.00 |